Time;durP1;ratioP1;P1;durP2;ratioP2;P2;SDS_P1;SDS_P2;PMS_P1;PMS_P2;Temp;Humidity;BMP_temperature;BMP_pressure;BME280_temperature;BME280_humidity;BME280_pressure;Samples;Min_cycle;Max_cycle;Signal;HPM_P1;HPM_P2
2021/01/19 00:00:02;;;;;;;35.67;19.40;;;5.30;97.00;;;;;;4918119;29;20040;-77
2021/01/19 00:02:28;;;;;;;34.70;18.92;;;5.40;97.10;;;;;;4918563;29;20044;-77
2021/01/19 00:04:54;;;;;;;39.47;19.38;;;5.40;97.10;;;;;;4917885;29;20040;-77
2021/01/19 00:07:19;;;;;;;37.88;19.98;;;5.40;97.10;;;;;;4918018;29;20036;-77
2021/01/19 00:09:45;;;;;;;29.42;17.95;;;5.40;97.10;;;;;;4917678;29;20040;-77
2021/01/19 00:12:12;;;;;;;43.25;18.35;;;5.50;97.10;;;;;;4918462;29;20044;-77
2021/01/19 00:14:37;;;;;;;35.38;18.45;;;5.50;97.00;;;;;;4901692;29;20044;-75
2021/01/19 00:17:03;;;;;;;39.28;17.95;;;5.50;97.20;;;;;;4917774;29;20036;-75
2021/01/19 00:19:29;;;;;;;34.60;16.23;;;5.50;97.00;;;;;;4899291;29;20094;-75
2021/01/19 00:21:55;;;;;;;35.67;16.02;;;5.50;97.10;;;;;;4901280;29;20047;-75
2021/01/19 00:24:21;;;;;;;32.28;15.68;;;5.50;97.00;;;;;;4918190;29;20076;-75
2021/01/19 00:26:46;;;;;;;29.58;15.00;;;5.60;97.00;;;;;;4901295;29;20040;-74
2021/01/19 00:29:12;;;;;;;29.67;15.45;;;5.50;97.10;;;;;;4918158;29;20044;-74
2021/01/19 00:31:38;;;;;;;24.27;13.27;;;5.60;97.10;;;;;;4917214;29;20044;-74
2021/01/19 00:34:04;;;;;;;25.80;13.13;;;5.60;97.10;;;;;;4901126;29;20038;-74
2021/01/19 00:36:30;;;;;;;30.85;12.93;;;5.60;97.10;;;;;;4918141;29;20040;-74
2021/01/19 00:38:56;;;;;;;32.00;13.65;;;5.60;97.10;;;;;;4916975;29;20036;-74
2021/01/19 00:41:21;;;;;;;27.92;13.10;;;5.60;97.10;;;;;;4918029;29;20487;-74
2021/01/19 00:43:48;;;;;;;22.35;12.65;;;5.80;97.20;;;;;;4917727;29;20076;-74
2021/01/19 00:46:14;;;;;;;22.13;12.13;;;5.50;97.20;;;;;;4917951;29;20436;-75
2021/01/19 00:48:42;;;;;;;25.40;12.02;;;5.50;97.20;;;;;;4899730;29;20046;-75
2021/01/19 00:51:08;;;;;;;30.35;12.35;;;5.50;97.20;;;;;;4917858;29;20043;-75
2021/01/19 00:53:34;;;;;;;29.23;12.48;;;5.50;97.10;;;;;;4917804;29;20549;-75
2021/01/19 00:56:00;;;;;;;24.05;12.23;;;5.50;97.10;;;;;;4917616;29;20084;-75
2021/01/19 00:58:26;;;;;;;25.23;12.20;;;5.60;97.20;;;;;;4892454;29;20036;-75
2021/01/19 01:00:51;;;;;;;22.88;11.80;;;5.60;97.10;;;;;;4897010;29;20044;-75
2021/01/19 01:03:17;;;;;;;23.00;12.52;;;5.60;97.00;;;;;;4900769;29;20032;-75
2021/01/19 01:05:43;;;;;;;25.90;12.00;;;5.90;97.20;;;;;;4916899;29;20405;-76
2021/01/19 01:08:09;;;;;;;25.45;12.40;;;5.90;97.20;;;;;;4900329;29;20100;-75
2021/01/19 01:10:35;;;;;;;24.77;12.88;;;5.50;97.10;;;;;;4916264;29;20397;-75
2021/01/19 01:13:01;;;;;;;31.88;13.38;;;5.50;97.20;;;;;;4909057;29;20127;-75
2021/01/19 01:15:35;;;;;;;31.42;14.50;;;5.50;97.20;;;;;;4899744;29;20040;-75
2021/01/19 01:18:01;;;;;;;25.17;14.88;;;5.50;97.40;;;;;;4916338;29;20051;-75
2021/01/19 01:20:27;;;;;;;24.67;14.88;;;5.50;97.40;;;;;;4915811;29;20044;-75
2021/01/19 01:22:54;;;;;;;27.20;17.35;;;5.60;97.50;;;;;;4916721;29;20489;-76
2021/01/19 01:25:20;;;;;;;29.98;17.08;;;5.70;97.60;;;;;;4900216;29;20040;-76
2021/01/19 01:27:47;;;;;;;26.05;18.35;;;5.50;97.70;;;;;;4916659;29;20066;-76
2021/01/19 01:30:16;;;;;;;24.85;17.60;;;5.50;97.60;;;;;;4916864;29;20440;-76
2021/01/19 01:32:43;;;;;;;31.73;20.95;;;5.50;97.70;;;;;;4913167;29;20143;-76
2021/01/19 01:35:13;;;;;;;29.05;20.02;;;5.50;97.90;;;;;;4911970;29;20040;-76
2021/01/19 01:37:50;;;;;;;32.55;19.88;;;5.50;97.90;;;;;;4916463;29;20040;-74
2021/01/19 01:40:19;;;;;;;34.80;22.30;;;5.50;97.90;;;;;;4916859;29;20496;-74
2021/01/19 01:42:45;;;;;;;29.83;20.70;;;5.50;97.90;;;;;;4916504;29;20098;-74
2021/01/19 01:45:18;;;;;;;29.13;22.25;;;5.50;97.90;;;;;;4916886;29;20068;-74
2021/01/19 01:47:45;;;;;;;29.85;22.73;;;5.40;97.80;;;;;;4899489;29;20476;-74
2021/01/19 01:50:12;;;;;;;34.75;23.38;;;5.40;97.90;;;;;;4916757;29;20051;-76
2021/01/19 01:52:39;;;;;;;29.83;21.70;;;5.50;98.10;;;;;;4916722;29;20044;-76
2021/01/19 01:55:05;;;;;;;36.85;23.58;;;5.50;98.00;;;;;;4916831;29;20047;-74
2021/01/19 01:57:33;;;;;;;33.50;24.90;;;5.50;98.00;;;;;;4915684;29;20048;-74
2021/01/19 01:59:59;;;;;;;33.33;23.95;;;5.80;98.10;;;;;;4899821;29;20043;-73
2021/01/19 02:02:26;;;;;;;31.65;23.27;;;5.50;98.00;;;;;;4916364;29;20040;-74
2021/01/19 02:04:53;;;;;;;37.40;25.33;;;5.50;98.20;;;;;;4916666;29;20489;-73
2021/01/19 02:07:39;;;;;;;37.10;27.02;;;5.70;98.20;;;;;;4916578;29;20037;-73
2021/01/19 02:10:23;;;;;;;37.67;25.20;;;5.50;98.20;;;;;;4904442;29;20108;-73
2021/01/19 02:13:25;;;;;;;35.38;26.58;;;5.50;98.20;;;;;;4899541;29;20048;-73
2021/01/19 02:16:15;;;;;;;39.20;27.10;;;5.50;98.20;;;;;;4907621;29;20060;-73
2021/01/19 02:19:17;;;;;;;42.33;27.38;;;5.50;98.10;;;;;;4915780;29;20044;-73
2021/01/19 02:22:20;;;;;;;45.38;27.52;;;5.50;98.20;;;;;;4916260;29;20071;-75
2021/01/19 02:25:23;;;;;;;43.08;27.15;;;5.50;98.30;;;;;;4899686;29;20040;-75
2021/01/19 02:28:14;;;;;;;49.13;30.15;;;5.50;98.30;;;;;;4906585;29;20131;-76
2021/01/19 02:31:28;;;;;;;48.42;28.73;;;5.70;98.30;;;;;;4920239;29;20044;-75
2021/01/19 02:34:11;;;;;;;49.15;29.27;;;5.60;98.40;;;;;;4920117;29;20036;-75
2021/01/19 02:36:49;;;;;;;49.17;29.25;;;5.60;98.40;;;;;;4918659;29;20088;-75
2021/01/19 02:39:24;;;;;;;53.15;29.88;;;5.60;98.50;;;;;;4906275;29;20042;-75
2021/01/19 02:41:53;;;;;;;49.30;29.38;;;5.60;98.50;;;;;;4920149;29;20473;-75
2021/01/19 02:44:20;;;;;;;60.92;29.65;;;5.60;98.50;;;;;;4920043;29;20056;-75
2021/01/19 02:46:52;;;;;;;40.67;27.20;;;5.10;98.50;;;;;;4902736;29;20400;-75
2021/01/19 02:49:19;;;;;;;52.13;26.73;;;5.60;98.60;;;;;;4917014;29;20497;-76
2021/01/19 02:51:47;;;;;;;44.33;27.88;;;5.60;98.60;;;;;;4919966;29;20058;-73
2021/01/19 02:54:15;;;;;;;48.78;27.60;;;5.60;98.60;;;;;;4919724;29;20504;-73
2021/01/19 02:56:50;;;;;;;48.13;27.73;;;5.60;98.70;;;;;;4916761;29;20040;-73
2021/01/19 02:59:40;;;;;;;42.33;26.08;;;5.70;98.70;;;;;;4917219;29;20413;-73
2021/01/19 03:02:11;;;;;;;47.67;26.73;;;5.60;98.60;;;;;;4902988;29;20072;-73
2021/01/19 03:04:38;;;;;;;49.80;26.48;;;5.60;98.50;;;;;;4902767;29;20040;-73
2021/01/19 03:07:08;;;;;;;40.05;24.98;;;5.90;98.50;;;;;;4919153;29;20043;-73
2021/01/19 03:09:42;;;;;;;44.90;25.70;;;5.60;98.50;;;;;;4902571;29;20040;-73
2021/01/19 03:12:12;;;;;;;38.22;22.38;;;5.60;98.50;;;;;;4919173;29;20413;-73
2021/01/19 03:14:38;;;;;;;40.72;23.38;;;5.60;98.40;;;;;;4918163;29;20349;-73
2021/01/19 03:17:05;;;;;;;44.03;24.25;;;5.60;98.40;;;;;;4919298;29;20043;-73
2021/01/19 03:19:35;;;;;;;37.00;24.48;;;5.60;98.40;;;;;;4919460;29;20036;-73
2021/01/19 03:22:01;;;;;;;42.50;24.58;;;5.60;98.40;;;;;;4909072;29;20621;-73
2021/01/19 03:24:27;;;;;;;34.72;22.80;;;5.60;98.50;;;;;;4918910;29;20114;-73
2021/01/19 03:26:52;;;;;;;36.58;22.90;;;5.60;98.40;;;;;;4902408;29;20496;-73
2021/01/19 03:29:18;;;;;;;40.75;23.60;;;5.60;98.50;;;;;;4919398;29;20052;-73
2021/01/19 03:31:44;;;;;;;34.92;23.42;;;5.90;98.40;;;;;;4918716;29;20036;-73
2021/01/19 03:34:10;;;;;;;33.25;22.58;;;5.60;98.50;;;;;;4900805;29;20476;-73
2021/01/19 03:36:35;;;;;;;35.38;22.52;;;5.60;98.50;;;;;;4912139;29;20481;-74
2021/01/19 03:39:01;;;;;;;37.83;22.38;;;5.50;98.70;;;;;;4919018;29;20040;-74
2021/01/19 03:41:27;;;;;;;29.73;19.52;;;5.70;98.50;;;;;;4902266;29;20041;-75
2021/01/19 03:43:53;;;;;;;31.23;19.52;;;5.50;98.40;;;;;;4902209;29;20408;-75
2021/01/19 03:46:19;;;;;;;37.33;20.60;;;5.50;98.50;;;;;;4918480;29;20485;-75
2021/01/19 03:48:45;;;;;;;36.97;19.38;;;5.50;98.50;;;;;;4901459;29;20044;-73
2021/01/19 03:51:11;;;;;;;34.78;19.23;;;6.60;98.90;;;;;;4919009;29;20046;-73
2021/01/19 03:53:37;;;;;;;28.02;16.83;;;5.50;98.70;;;;;;4919114;29;20074;-73
2021/01/19 03:56:04;;;;;;;28.40;18.90;;;5.50;98.60;;;;;;4918237;29;20036;-73
2021/01/19 03:58:30;;;;;;;25.40;15.25;;;5.50;98.60;;;;;;4917671;29;20115;-74
2021/01/19 04:00:55;;;;;;;25.35;16.73;;;5.50;98.70;;;;;;4901742;29;20040;-73
2021/01/19 04:03:21;;;;;;;22.80;14.48;;;5.50;98.60;;;;;;4918610;29;20503;-73
2021/01/19 04:05:47;;;;;;;26.98;14.75;;;5.50;98.60;;;;;;4917459;29;20050;-73
2021/01/19 04:08:12;;;;;;;23.95;13.52;;;5.50;98.70;;;;;;4918569;29;20036;-73
2021/01/19 04:10:38;;;;;;;20.08;12.88;;;5.50;98.70;;;;;;4918770;29;20075;-73
2021/01/19 04:13:04;;;;;;;22.45;13.65;;;5.50;98.60;;;;;;4918659;29;20040;-73
2021/01/19 04:15:30;;;;;;;17.83;12.38;;;6.20;98.80;;;;;;4907124;29;20043;-73
2021/01/19 04:17:56;;;;;;;26.10;13.07;;;5.50;98.70;;;;;;4918625;29;20032;-73
2021/01/19 04:20:22;;;;;;;20.73;11.15;;;5.50;98.80;;;;;;4918078;29;20420;-74
2021/01/19 04:22:47;;;;;;;18.15;9.93;;;5.40;98.70;;;;;;4918092;29;20104;-73
2021/01/19 04:25:13;;;;;;;16.40;10.90;;;5.40;98.70;;;;;;4905696;29;20043;-73
2021/01/19 04:27:39;;;;;;;16.23;9.95;;;5.40;98.70;;;;;;4885971;29;20105;-73
2021/01/19 04:30:08;;;;;;;17.80;9.93;;;5.40;98.70;;;;;;4901428;29;20036;-73
2021/01/19 04:32:35;;;;;;;17.48;9.18;;;5.40;98.70;;;;;;4918068;29;20381;-73
2021/01/19 04:35:02;;;;;;;15.25;7.80;;;5.40;98.70;;;;;;4914550;29;20044;-73
2021/01/19 04:37:28;;;;;;;13.80;7.50;;;5.50;98.70;;;;;;4918129;29;20392;-73
2021/01/19 04:39:54;;;;;;;13.05;7.80;;;5.50;98.70;;;;;;4918141;29;20115;-73
2021/01/19 04:42:20;;;;;;;13.73;7.82;;;5.50;98.70;;;;;;4900745;29;20071;-73
2021/01/19 04:44:48;;;;;;;11.55;6.43;;;5.40;98.80;;;;;;4917369;29;20116;-73
2021/01/19 04:47:15;;;;;;;14.40;6.57;;;5.50;98.80;;;;;;4918496;29;20051;-73
2021/01/19 04:49:44;;;;;;;9.82;6.65;;;5.40;98.70;;;;;;4901091;29;20044;-73
2021/01/19 04:52:15;;;;;;;14.38;7.25;;;5.40;98.80;;;;;;4917228;29;20055;-73
2021/01/19 04:55:03;;;;;;;11.20;6.25;;;5.40;98.80;;;;;;4909136;29;20064;-73
2021/01/19 04:57:31;;;;;;;18.10;7.28;;;5.40;98.70;;;;;;4901020;29;20047;-73
2021/01/19 05:00:13;;;;;;;15.98;7.25;;;5.70;98.70;;;;;;4917895;29;20072;-73
2021/01/19 05:03:20;;;;;;;12.93;6.28;;;5.50;98.80;;;;;;4912334;29;20048;-73
2021/01/19 05:05:57;;;;;;;13.05;6.53;;;5.50;98.80;;;;;;4893376;29;20036;-74
2021/01/19 05:08:25;;;;;;;13.48;6.90;;;5.40;98.70;;;;;;4917050;29;20040;-74
2021/01/19 05:10:57;;;;;;;13.40;6.63;;;5.80;98.90;;;;;;4917674;29;20040;-74
2021/01/19 05:13:52;;;;;;;12.80;6.00;;;5.40;99.00;;;;;;4916081;29;20036;-75
2021/01/19 05:16:23;;;;;;;13.13;4.82;;;5.40;98.80;;;;;;4917771;29;20181;-75
2021/01/19 05:18:50;;;;;;;11.35;5.90;;;5.40;98.80;;;;;;4907400;29;20048;-74
2021/01/19 05:21:16;;;;;;;7.93;5.18;;;5.40;98.80;;;;;;4917192;29;20066;-74
2021/01/19 05:23:43;;;;;;;11.50;5.18;;;5.40;98.80;;;;;;4897693;29;20044;-74
2021/01/19 05:26:11;;;;;;;9.63;4.68;;;5.40;98.70;;;;;;4917451;29;20044;-75
2021/01/19 05:28:46;;;;;;;14.05;5.75;;;5.40;98.80;;;;;;4917137;29;20513;-75
2021/01/19 05:31:14;;;;;;;11.00;5.13;;;5.40;98.80;;;;;;4898266;29;20055;-75
2021/01/19 05:33:55;;;;;;;11.65;5.18;;;5.40;98.80;;;;;;4910062;29;20043;-75
2021/01/19 05:36:23;;;;;;;9.52;4.90;;;5.30;98.80;;;;;;4899266;29;20036;-74
2021/01/19 05:38:54;;;;;;;8.70;4.68;;;5.30;98.70;;;;;;4916902;29;20119;-73
2021/01/19 05:41:27;;;;;;;9.88;5.00;;;5.60;98.90;;;;;;4917001;29;20192;-73
2021/01/19 05:43:54;;;;;;;13.50;4.93;;;5.30;98.70;;;;;;4893241;29;20040;-73
2021/01/19 05:46:27;;;;;;;9.50;5.07;;;5.30;98.70;;;;;;4917100;29;20400;-74
2021/01/19 05:49:01;;;;;;;10.70;4.97;;;5.30;98.70;;;;;;4916745;29;20064;-73
2021/01/19 05:51:31;;;;;;;9.20;4.63;;;5.30;99.00;;;;;;4899408;29;20048;-73
2021/01/19 05:54:00;;;;;;;6.78;4.75;;;5.30;98.80;;;;;;4893187;29;20123;-73
2021/01/19 05:56:27;;;;;;;9.10;4.57;;;5.30;98.80;;;;;;4916889;29;20040;-73
2021/01/19 05:58:53;;;;;;;11.02;4.93;;;5.30;98.90;;;;;;4899868;29;20044;-73
2021/01/19 06:01:30;;;;;;;8.02;4.72;;;5.30;98.80;;;;;;4916778;29;20036;-72
2021/01/19 06:04:01;;;;;;;9.85;4.63;;;5.30;98.80;;;;;;4916349;29;20068;-72
2021/01/19 06:06:28;;;;;;;8.32;4.32;;;5.30;98.80;;;;;;4902804;29;20066;-72
2021/01/19 06:09:08;;;;;;;10.45;4.40;;;5.30;98.90;;;;;;4916202;29;20087;-72
2021/01/19 06:11:34;;;;;;;9.20;4.40;;;5.30;98.80;;;;;;4909907;29;20146;-72
2021/01/19 06:14:00;;;;;;;6.38;4.32;;;5.30;98.80;;;;;;4912708;29;20036;-73
2021/01/19 06:16:26;;;;;;;8.02;4.72;;;5.30;98.80;;;;;;4916118;29;20040;-73
2021/01/19 06:18:53;;;;;;;11.07;5.03;;;5.30;98.90;;;;;;4916432;29;20067;-72
2021/01/19 06:21:30;;;;;;;10.57;4.28;;;5.30;98.90;;;;;;4916365;29;20059;-73
2021/01/19 06:23:57;;;;;;;10.45;4.38;;;5.30;98.90;;;;;;4916259;29;20040;-72
2021/01/19 06:26:22;;;;;;;6.03;4.72;;;5.30;99.00;;;;;;4916014;29;20047;-72
2021/01/19 06:28:48;;;;;;;7.05;4.75;;;5.30;99.00;;;;;;4916110;29;20052;-72
2021/01/19 06:31:15;;;;;;;10.75;4.90;;;5.40;99.00;;;;;;4908864;29;20120;-72
2021/01/19 06:33:42;;;;;;;8.98;4.97;;;5.30;99.00;;;;;;4906981;29;20107;-72
2021/01/19 06:36:09;;;;;;;9.27;5.53;;;5.30;99.00;;;;;;4916303;29;20201;-72
2021/01/19 06:38:34;;;;;;;9.88;5.32;;;5.30;99.10;;;;;;4916034;29;20040;-72
2021/01/19 06:41:04;;;;;;;11.88;6.18;;;5.40;99.00;;;;;;4916197;29;20190;-72
2021/01/19 06:43:37;;;;;;;11.05;5.68;;;5.30;99.00;;;;;;4898233;29;20040;-74
2021/01/19 06:46:08;;;;;;;9.45;6.47;;;5.30;99.00;;;;;;4903549;29;20050;-73
2021/01/19 06:48:35;;;;;;;7.32;5.30;;;6.10;99.10;;;;;;4916092;29;20131;-73
2021/01/19 06:51:09;;;;;;;7.25;6.25;;;5.30;98.90;;;;;;4899009;29;20040;-74
2021/01/19 06:53:46;;;;;;;8.77;6.32;;;5.40;99.20;;;;;;4908320;29;20047;-73
2021/01/19 06:56:15;;;;;;;9.20;6.35;;;5.40;98.90;;;;;;4902996;29;20036;-74
2021/01/19 06:59:15;;;;;;;11.45;7.78;;;5.30;98.80;;;;;;4899013;29;20044;-73
2021/01/19 07:01:43;;;;;;;9.30;6.10;;;5.30;98.90;;;;;;4893063;29;20412;-75
2021/01/19 07:04:12;;;;;;;9.20;6.50;;;6.20;99.10;;;;;;4890876;29;20073;-75
2021/01/19 07:06:59;;;;;;;10.50;5.88;;;5.40;98.90;;;;;;4910797;29;20040;-76
2021/01/19 07:09:34;;;;;;;7.25;6.05;;;5.40;99.00;;;;;;4916135;29;20059;-73
2021/01/19 07:12:08;;;;;;;10.80;6.93;;;5.40;99.00;;;;;;4914297;29;20044;-73
2021/01/19 07:14:54;;;;;;;14.88;7.35;;;5.40;99.30;;;;;;4916266;29;20051;-73
2021/01/19 07:17:43;;;;;;;9.02;6.28;;;5.40;99.10;;;;;;4915560;29;20048;-73
2021/01/19 07:20:16;;;;;;;8.38;6.00;;;5.40;99.20;;;;;;4918598;29;20065;-72
2021/01/19 07:23:08;;;;;;;7.60;6.13;;;5.40;99.10;;;;;;4919197;29;20048;-72
2021/01/19 07:25:34;;;;;;;10.50;6.28;;;5.40;99.10;;;;;;4918945;29;20040;-72
2021/01/19 07:28:02;;;;;;;9.70;6.50;;;5.40;99.10;;;;;;4919235;29;20044;-72
2021/01/19 07:30:28;;;;;;;10.73;6.82;;;5.40;99.10;;;;;;4898752;29;20436;-75
2021/01/19 07:32:56;;;;;;;6.70;5.70;;;5.40;99.20;;;;;;4918726;29;20489;-76
2021/01/19 07:35:25;;;;;;;7.50;6.13;;;5.40;99.10;;;;;;4919016;29;20503;-76
2021/01/19 07:37:58;;;;;;;6.88;6.03;;;5.40;99.30;;;;;;4919014;29;20036;-76
2021/01/19 07:40:25;;;;;;;8.73;5.82;;;5.50;99.30;;;;;;4914201;29;20393;-76
2021/01/19 07:42:52;;;;;;;7.47;5.80;;;5.50;99.20;;;;;;4927226;29;20035;-75
2021/01/19 07:45:29;;;;;;;10.48;6.15;;;5.50;99.30;;;;;;4899756;29;20111;-76
2021/01/19 07:48:07;;;;;;;10.23;5.85;;;5.60;99.40;;;;;;4913284;29;20127;-74
2021/01/19 07:50:42;;;;;;;8.02;6.18;;;5.50;99.40;;;;;;4912002;29;20416;-75
2021/01/19 07:53:09;;;;;;;8.43;5.88;;;5.60;99.40;;;;;;4915451;29;20044;-71
2021/01/19 07:55:44;;;;;;;9.00;6.78;;;5.60;99.40;;;;;;4919101;29;20068;-73
2021/01/19 07:58:17;;;;;;;10.18;7.05;;;5.60;99.40;;;;;;4920578;29;20036;-72
2021/01/19 08:00:46;;;;;;;6.93;6.13;;;5.60;99.50;;;;;;4922978;29;20123;-72
2021/01/19 08:03:11;;;;;;;8.95;6.82;;;5.60;99.40;;;;;;4901176;29;20064;-72
2021/01/19 08:05:37;;;;;;;9.32;6.82;;;5.60;99.50;;;;;;4917023;29;20126;-75
2021/01/19 08:08:17;;;;;;;7.55;6.45;;;5.60;99.40;;;;;;4901243;29;20498;-74
2021/01/19 08:10:55;;;;;;;8.65;6.50;;;5.60;99.50;;;;;;4898891;29;20067;-75
2021/01/19 08:13:21;;;;;;;9.35;6.85;;;5.60;99.50;;;;;;4904137;29;20405;-77
2021/01/19 08:16:07;;;;;;;9.55;5.70;;;5.70;99.40;;;;;;4894321;29;20168;-76
2021/01/19 08:18:40;;;;;;;9.07;6.78;;;5.70;99.40;;;;;;4916902;29;20036;-78
2021/01/19 08:21:08;;;;;;;7.82;6.15;;;5.70;99.40;;;;;;4914498;29;20622;-77
2021/01/19 08:23:35;;;;;;;8.75;6.28;;;5.70;99.40;;;;;;4895179;29;20044;-77
2021/01/19 08:26:07;;;;;;;8.00;5.72;;;5.70;99.40;;;;;;4915098;29;20043;-77
2021/01/19 08:28:33;;;;;;;5.93;5.28;;;5.70;99.40;;;;;;4903631;29;20036;-78
2021/01/19 08:30:59;;;;;;;6.55;5.22;;;5.70;99.40;;;;;;4905710;29;20048;-77
2021/01/19 08:33:26;;;;;;;10.20;6.20;;;6.50;99.60;;;;;;4901239;29;20071;-76
2021/01/19 08:35:54;;;;;;;8.07;6.18;;;5.90;99.40;;;;;;4917941;29;20060;-77
2021/01/19 08:38:24;;;;;;;7.63;6.10;;;5.80;99.40;;;;;;4911473;29;20040;-77
2021/01/19 08:40:50;;;;;;;5.95;5.30;;;6.00;99.50;;;;;;4916256;29;20044;-77
2021/01/19 08:43:17;;;;;;;6.10;5.50;;;5.80;99.40;;;;;;4913670;29;20047;-77
2021/01/19 08:45:43;;;;;;;8.02;6.00;;;5.80;99.40;;;;;;4899323;29;20042;-76
2021/01/19 08:48:10;;;;;;;7.50;6.72;;;5.90;99.30;;;;;;4900370;29;20032;-77
2021/01/19 08:50:41;;;;;;;6.82;5.40;;;5.90;99.40;;;;;;4888681;29;20052;-77
2021/01/19 08:53:13;;;;;;;6.82;5.25;;;6.10;99.40;;;;;;4904012;29;20044;-73
2021/01/19 08:55:43;;;;;;;6.95;5.55;;;5.90;99.20;;;;;;4911743;29;20044;-73
2021/01/19 08:58:17;;;;;;;6.50;5.40;;;5.90;99.30;;;;;;4907565;29;20036;-72
2021/01/19 09:00:43;;;;;;;7.88;6.05;;;5.90;99.40;;;;;;4911026;29;20124;-74
2021/01/19 09:03:17;;;;;;;7.03;5.40;;;6.10;99.40;;;;;;4915538;29;20120;-73
2021/01/19 09:05:43;;;;;;;6.32;5.10;;;5.90;99.40;;;;;;4917737;29;20553;-78
2021/01/19 09:08:15;;;;;;;7.53;5.40;;;6.00;99.40;;;;;;4884305;29;20041;-70
2021/01/19 09:10:41;;;;;;;9.40;5.15;;;6.00;99.40;;;;;;4916949;29;20048;-71
2021/01/19 09:13:07;;;;;;;5.55;4.55;;;5.90;99.40;;;;;;4920142;29;20039;-79
2021/01/19 09:15:44;;;;;;;7.28;5.28;;;6.00;99.30;;;;;;4903316;29;20068;-79
2021/01/19 09:18:11;;;;;;;7.00;5.30;;;6.00;99.30;;;;;;4898397;29;20036;-76
2021/01/19 09:20:37;;;;;;;6.72;5.45;;;6.00;99.40;;;;;;4914697;29;20047;-83
2021/01/19 09:23:17;;;;;;;9.23;6.47;;;6.00;99.40;;;;;;4922497;29;20063;-86
2021/01/19 09:25:47;;;;;;;8.13;5.60;;;6.00;99.40;;;;;;4911317;29;20048;-86
2021/01/19 09:28:14;;;;;;;6.80;5.90;;;6.00;99.40;;;;;;4921460;29;20074;-86
2021/01/19 09:30:41;;;;;;;8.18;6.38;;;6.00;99.50;;;;;;4919163;29;20040;-85
2021/01/19 09:33:12;;;;;;;6.07;5.47;;;6.10;99.40;;;;;;4909950;29;20099;-84
2021/01/19 09:35:40;;;;;;;7.28;5.85;;;6.10;99.40;;;;;;4901560;29;20036;-83
2021/01/19 09:38:13;;;;;;;7.88;6.40;;;6.00;99.40;;;;;;4924946;29;20068;-85
2021/01/19 09:40:41;;;;;;;7.60;5.90;;;6.00;99.50;;;;;;4922359;29;20047;-85
2021/01/19 09:43:12;;;;;;;5.95;5.35;;;6.00;99.50;;;;;;4900792;29;20376;-86
2021/01/19 09:45:39;;;;;;;10.23;6.00;;;6.10;99.50;;;;;;4912626;29;20124;-86
2021/01/19 09:48:07;;;;;;;8.82;5.45;;;6.70;99.70;;;;;;4928207;29;20044;-90
2021/01/19 09:50:33;;;;;;;5.88;5.05;;;6.10;99.50;;;;;;4907625;29;20054;-89
2021/01/19 09:52:59;;;;;;;8.45;5.55;;;6.10;99.80;;;;;;4903415;29;20036;-80
2021/01/19 09:55:30;;;;;;;9.13;6.00;;;6.10;99.50;;;;;;4912355;29;20039;-82
2021/01/19 09:58:04;;;;;;;6.22;4.53;;;6.10;99.50;;;;;;4922792;29;20052;-82
2021/01/19 10:00:37;;;;;;;9.75;6.65;;;6.10;99.50;;;;;;4927557;29;20039;-81
2021/01/19 10:03:20;;;;;;;8.88;6.80;;;6.10;99.50;;;;;;4923349;29;20038;-80
2021/01/19 10:05:58;;;;;;;8.45;6.15;;;6.10;99.60;;;;;;4921199;29;20051;-79
2021/01/19 10:08:24;;;;;;;9.23;7.00;;;6.20;99.70;;;;;;4913791;29;20039;-79
2021/01/19 10:10:50;;;;;;;8.80;6.50;;;6.20;99.60;;;;;;4891203;29;20048;-78
2021/01/19 10:13:22;;;;;;;8.40;5.68;;;6.20;99.70;;;;;;4918887;29;20044;-77
2021/01/19 10:15:55;;;;;;;9.30;5.13;;;6.30;99.70;;;;;;4908817;29;20098;-78
2021/01/19 10:18:24;;;;;;;10.27;6.22;;;6.30;99.70;;;;;;4896474;29;20036;-78
2021/01/19 10:20:50;;;;;;;8.20;5.30;;;6.30;99.70;;;;;;4904779;29;20046;-79
2021/01/19 10:23:31;;;;;;;7.88;5.72;;;6.70;99.90;;;;;;4915670;29;20044;-79
2021/01/19 10:26:12;;;;;;;7.78;5.25;;;6.40;99.80;;;;;;4902447;29;20096;-78
2021/01/19 10:28:47;;;;;;;7.30;4.85;;;6.40;99.90;;;;;;4899656;29;20044;-76
2021/01/19 10:31:17;;;;;;;8.00;4.97;;;6.50;99.90;;;;;;4929946;29;20091;-77
2021/01/19 10:34:05;;;;;;;5.45;4.57;;;6.50;99.90;;;;;;4916485;29;20040;-77
2021/01/19 10:36:33;;;;;;;6.65;4.85;;;6.60;99.90;;;;;;4894344;29;20406;-76
2021/01/19 10:39:07;;;;;;;8.05;5.45;;;6.60;99.90;;;;;;4902378;29;20044;-77
2021/01/19 10:41:33;;;;;;;7.18;5.38;;;7.20;99.90;;;;;;4913657;29;20100;-78
2021/01/19 10:44:00;;;;;;;8.70;6.30;;;6.70;99.90;;;;;;4922605;29;20058;-78
2021/01/19 10:46:31;;;;;;;11.43;7.28;;;6.70;99.90;;;;;;4900618;29;20107;-75
2021/01/19 10:49:00;;;;;;;7.13;6.00;;;6.90;99.90;;;;;;4900355;29;20102;-76
2021/01/19 10:51:28;;;;;;;10.32;7.15;;;7.20;99.90;;;;;;4925386;29;20503;-76
2021/01/19 10:54:10;;;;;;;7.85;6.38;;;6.80;99.90;;;;;;4921116;29;20040;-75
2021/01/19 10:56:37;;;;;;;7.35;6.20;;;6.90;99.90;;;;;;4918554;29;20483;-77
2021/01/19 10:59:04;;;;;;;12.25;7.50;;;6.70;99.90;;;;;;4918840;29;20128;-77
2021/01/19 11:01:32;;;;;;;33.38;16.02;;;7.00;99.90;;;;;;4921498;29;20469;-77
2021/01/19 11:03:58;;;;;;;18.00;10.43;;;7.00;99.90;;;;;;4893373;29;20052;-76
2021/01/19 11:06:51;;;;;;;13.90;8.43;;;7.10;99.90;;;;;;4901016;29;20036;-76
2021/01/19 11:09:17;;;;;;;14.80;9.02;;;7.10;99.90;;;;;;4917029;29;20086;-76
2021/01/19 11:11:43;;;;;;;17.98;9.25;;;7.10;99.90;;;;;;4902660;29;20060;-76
2021/01/19 11:14:09;;;;;;;17.60;10.07;;;7.10;99.90;;;;;;4913711;29;20040;-76
2021/01/19 11:16:40;;;;;;;18.58;9.80;;;7.20;99.90;;;;;;4887742;29;20040;-76
2021/01/19 11:19:08;;;;;;;23.95;9.73;;;7.20;99.90;;;;;;4924790;29;20514;-80
2021/01/19 11:21:35;;;;;;;21.83;10.07;;;7.70;99.90;;;;;;4919877;29;20058;-78
2021/01/19 11:24:03;;;;;;;32.40;11.45;;;7.20;99.90;;;;;;4918112;29;20067;-78
2021/01/19 11:26:29;;;;;;;28.65;10.30;;;7.30;99.90;;;;;;4919608;29;20032;-78
2021/01/19 11:28:56;;;;;;;28.10;10.15;;;7.30;99.90;;;;;;4918030;29;20127;-77
2021/01/19 11:31:29;;;;;;;27.85;10.65;;;7.30;99.90;;;;;;4902882;29;20039;-80
2021/01/19 11:33:56;;;;;;;20.63;8.75;;;7.40;99.90;;;;;;4923869;29;20521;-79
2021/01/19 11:36:28;;;;;;;19.23;8.65;;;7.40;99.90;;;;;;4921229;29;20064;-77
2021/01/19 11:38:55;;;;;;;23.83;9.45;;;7.40;99.90;;;;;;4922756;29;20384;-78
2021/01/19 11:41:23;;;;;;;26.48;8.65;;;7.50;99.90;;;;;;4922145;29;20076;-78
2021/01/19 11:43:52;;;;;;;26.52;8.15;;;7.50;99.90;;;;;;4885627;29;20067;-77
2021/01/19 11:46:20;;;;;;;23.25;7.65;;;7.60;99.90;;;;;;4919117;29;20096;-77
2021/01/19 11:48:47;;;;;;;25.90;8.63;;;8.00;99.90;;;;;;4898627;29;20532;-79
2021/01/19 11:51:18;;;;;;;25.33;8.60;;;7.70;99.90;;;;;;4907268;29;20490;-79
2021/01/19 11:53:49;;;;;;;33.65;9.40;;;7.70;99.90;;;;;;4895447;29;20080;-83
2021/01/19 11:56:16;;;;;;;32.53;8.82;;;7.70;99.90;;;;;;4913006;29;20469;-82
2021/01/19 11:58:43;;;;;;;37.78;10.23;;;7.80;99.90;;;;;;4883850;29;20048;-83
2021/01/19 12:01:19;;;;;;;43.33;9.98;;;7.80;99.90;;;;;;4920515;29;20043;-83
2021/01/19 12:03:46;;;;;;;38.17;10.43;;;7.80;99.90;;;;;;4901456;29;20040;-75
2021/01/19 12:06:12;;;;;;;37.28;9.02;;;7.90;99.90;;;;;;4916838;29;20038;-78
2021/01/19 12:08:38;;;;;;;35.10;9.25;;;7.90;99.90;;;;;;4918045;29;20147;-78
2021/01/19 12:11:07;;;;;;;33.03;9.93;;;8.00;99.90;;;;;;4898129;29;20549;-76
2021/01/19 12:13:33;;;;;;;41.45;9.88;;;8.00;99.90;;;;;;4918606;29;20131;-77
2021/01/19 12:15:59;;;;;;;35.25;8.73;;;8.00;99.90;;;;;;4902062;29;20036;-76
2021/01/19 12:18:25;;;;;;;37.42;8.68;;;8.10;99.90;;;;;;4919649;29;20111;-76
2021/01/19 12:20:51;;;;;;;27.05;7.32;;;8.00;99.90;;;;;;4895611;29;20123;-76
2021/01/19 12:23:16;;;;;;;30.10;7.07;;;8.10;99.90;;;;;;4900577;29;20028;-76
2021/01/19 12:25:42;;;;;;;22.00;6.30;;;8.10;99.90;;;;;;4908152;29;20044;-77
2021/01/19 12:28:08;;;;;;;27.65;6.82;;;8.10;99.90;;;;;;4923747;29;20476;-76
2021/01/19 12:30:34;;;;;;;23.75;5.80;;;8.20;99.90;;;;;;4891356;29;20079;-77
2021/01/19 12:32:59;;;;;;;24.33;5.97;;;8.20;99.90;;;;;;4904378;29;20067;-75
2021/01/19 12:35:25;;;;;;;26.30;5.32;;;8.20;99.90;;;;;;4905692;29;20036;-75
2021/01/19 12:37:57;;;;;;;21.75;5.90;;;8.20;99.90;;;;;;4930635;29;20515;-77
2021/01/19 12:40:23;;;;;;;20.45;6.15;;;8.30;99.90;;;;;;4906598;29;20044;-76
2021/01/19 12:42:51;;;;;;;32.33;6.65;;;8.30;99.90;;;;;;4920039;29;20045;-74
2021/01/19 12:45:17;;;;;;;29.17;5.50;;;8.30;99.90;;;;;;4903374;29;20075;-74
2021/01/19 12:47:48;;;;;;;30.08;5.28;;;8.30;99.90;;;;;;4917739;29;20091;-78
2021/01/19 12:50:14;;;;;;;27.23;5.15;;;8.40;99.90;;;;;;4917516;29;20055;-79
2021/01/19 12:52:40;;;;;;;22.92;5.05;;;8.30;99.90;;;;;;4917838;29;20044;-76
2021/01/19 12:55:06;;;;;;;19.02;5.00;;;8.40;99.90;;;;;;4917715;29;20040;-76
2021/01/19 12:57:32;;;;;;;29.67;6.70;;;8.40;99.90;;;;;;4920780;29;20055;-75
2021/01/19 12:59:58;;;;;;;19.33;5.00;;;8.40;99.90;;;;;;4905464;29;20048;-75